sensor_id;sensor_type;location;lat;lon;timestamp;temperature;humidity
56046;DHT22;41913;51.030;3.706;2023-01-28T00:01:08;19.00;79.40
56046;DHT22;41913;51.030;3.706;2023-01-28T00:03:35;19.00;79.50
56046;DHT22;41913;51.030;3.706;2023-01-28T00:06:05;19.00;79.50
56046;DHT22;41913;51.030;3.706;2023-01-28T00:08:32;18.90;79.40
56046;DHT22;41913;51.030;3.706;2023-01-28T00:11:02;18.90;79.40
56046;DHT22;41913;51.030;3.706;2023-01-28T00:13:28;18.90;79.40
56046;DHT22;41913;51.030;3.706;2023-01-28T00:15:56;18.90;79.40
56046;DHT22;41913;51.030;3.706;2023-01-28T00:18:22;18.90;79.50
56046;DHT22;41913;51.030;3.706;2023-01-28T00:21:01;18.90;79.50
56046;DHT22;41913;51.030;3.706;2023-01-28T00:23:28;18.80;79.40
56046;DHT22;41913;51.030;3.706;2023-01-28T00:25:54;18.80;79.40
56046;DHT22;41913;51.030;3.706;2023-01-28T00:28:22;18.80;79.40
56046;DHT22;41913;51.030;3.706;2023-01-28T00:30:47;18.80;79.40
56046;DHT22;41913;51.030;3.706;2023-01-28T00:33:14;18.80;79.40
56046;DHT22;41913;51.030;3.706;2023-01-28T00:35:41;18.80;79.40
56046;DHT22;41913;51.030;3.706;2023-01-28T00:38:07;18.70;79.40
56046;DHT22;41913;51.030;3.706;2023-01-28T00:40:33;18.70;79.40
56046;DHT22;41913;51.030;3.706;2023-01-28T00:42:59;18.70;79.40
56046;DHT22;41913;51.030;3.706;2023-01-28T00:45:26;18.70;79.40
56046;DHT22;41913;51.030;3.706;2023-01-28T00:47:52;18.70;79.40
56046;DHT22;41913;51.030;3.706;2023-01-28T00:50:17;18.70;79.40
56046;DHT22;41913;51.030;3.706;2023-01-28T00:52:48;18.70;79.40
56046;DHT22;41913;51.030;3.706;2023-01-28T00:55:14;18.60;79.30
56046;DHT22;41913;51.030;3.706;2023-01-28T00:57:40;18.70;79.40
56046;DHT22;41913;51.030;3.706;2023-01-28T01:00:06;18.60;79.30
56046;DHT22;41913;51.030;3.706;2023-01-28T01:02:32;18.60;79.30
56046;DHT22;41913;51.030;3.706;2023-01-28T01:04:58;18.60;79.30
56046;DHT22;41913;51.030;3.706;2023-01-28T01:07:25;18.60;79.30
56046;DHT22;41913;51.030;3.706;2023-01-28T01:10:10;18.60;79.40
56046;DHT22;41913;51.030;3.706;2023-01-28T01:12:37;18.50;79.30
56046;DHT22;41913;51.030;3.706;2023-01-28T01:15:04;18.50;79.30
56046;DHT22;41913;51.030;3.706;2023-01-28T01:17:33;18.50;79.30
56046;DHT22;41913;51.030;3.706;2023-01-28T01:20:03;18.50;79.30
56046;DHT22;41913;51.030;3.706;2023-01-28T01:22:32;18.50;79.30
56046;DHT22;41913;51.030;3.706;2023-01-28T01:24:59;18.50;79.30
56046;DHT22;41913;51.030;3.706;2023-01-28T01:27:24;18.50;79.30
56046;DHT22;41913;51.030;3.706;2023-01-28T01:29:50;18.50;79.30
56046;DHT22;41913;51.030;3.706;2023-01-28T01:32:17;18.50;79.30
56046;DHT22;41913;51.030;3.706;2023-01-28T01:34:43;18.40;79.20
56046;DHT22;41913;51.030;3.706;2023-01-28T01:37:08;18.40;79.20
56046;DHT22;41913;51.030;3.706;2023-01-28T01:39:35;18.40;79.20
56046;DHT22;41913;51.030;3.706;2023-01-28T01:42:01;18.40;79.20
56046;DHT22;41913;51.030;3.706;2023-01-28T01:45:30;18.40;79.20
56046;DHT22;41913;51.030;3.706;2023-01-28T01:52:49;18.30;79.20
56046;DHT22;41913;51.030;3.706;2023-01-28T01:55:19;18.40;79.20
56046;DHT22;41913;51.030;3.706;2023-01-28T01:57:47;18.40;79.20
56046;DHT22;41913;51.030;3.706;2023-01-28T02:00:14;18.40;79.20
56046;DHT22;41913;51.030;3.706;2023-01-28T02:02:44;18.30;79.10
56046;DHT22;41913;51.030;3.706;2023-01-28T02:05:16;18.30;79.20
56046;DHT22;41913;51.030;3.706;2023-01-28T02:07:43;18.30;79.10
56046;DHT22;41913;51.030;3.706;2023-01-28T02:10:10;18.30;79.10
56046;DHT22;41913;51.030;3.706;2023-01-28T02:12:40;18.30;79.10
56046;DHT22;41913;51.030;3.706;2023-01-28T02:15:15;18.20;79.60
56046;DHT22;41913;51.030;3.706;2023-01-28T02:17:42;18.30;79.10
56046;DHT22;41913;51.030;3.706;2023-01-28T02:31:31;18.20;79.00
56046;DHT22;41913;51.030;3.706;2023-01-28T02:34:30;18.20;79.00
56046;DHT22;41913;51.030;3.706;2023-01-28T02:36:58;18.20;79.00
56046;DHT22;41913;51.030;3.706;2023-01-28T02:39:44;18.20;79.00
56046;DHT22;41913;51.030;3.706;2023-01-28T02:42:18;18.20;79.00
56046;DHT22;41913;51.030;3.706;2023-01-28T02:44:45;18.20;79.00
56046;DHT22;41913;51.030;3.706;2023-01-28T02:47:12;18.10;79.00
56046;DHT22;41913;51.030;3.706;2023-01-28T02:50:14;18.10;79.00
56046;DHT22;41913;51.030;3.706;2023-01-28T02:53:00;18.10;79.00
56046;DHT22;41913;51.030;3.706;2023-01-28T02:55:56;18.10;78.90
56046;DHT22;41913;51.030;3.706;2023-01-28T02:58:46;18.10;78.90
56046;DHT22;41913;51.030;3.706;2023-01-28T03:01:32;18.10;78.90
56046;DHT22;41913;51.030;3.706;2023-01-28T03:04:27;18.10;78.90
56046;DHT22;41913;51.030;3.706;2023-01-28T03:06:57;18.10;78.90
56046;DHT22;41913;51.030;3.706;2023-01-28T03:09:31;18.10;79.50
56046;DHT22;41913;51.030;3.706;2023-01-28T03:12:13;18.00;78.90
56046;DHT22;41913;51.030;3.706;2023-01-28T03:15:05;18.00;78.80
56046;DHT22;41913;51.030;3.706;2023-01-28T03:17:57;18.00;78.90
56046;DHT22;41913;51.030;3.706;2023-01-28T03:21:12;18.00;78.90
56046;DHT22;41913;51.030;3.706;2023-01-28T03:24:05;18.00;78.80
56046;DHT22;41913;51.030;3.706;2023-01-28T03:27:10;17.90;78.80
56046;DHT22;41913;51.030;3.706;2023-01-28T03:29:58;18.00;78.90
56046;DHT22;41913;51.030;3.706;2023-01-28T03:32:44;17.90;78.80
56046;DHT22;41913;51.030;3.706;2023-01-28T03:35:33;17.90;78.80
56046;DHT22;41913;51.030;3.706;2023-01-28T03:38:19;17.90;78.80
56046;DHT22;41913;51.030;3.706;2023-01-28T03:41:01;17.90;78.80
56046;DHT22;41913;51.030;3.706;2023-01-28T03:43:30;17.90;78.80
56046;DHT22;41913;51.030;3.706;2023-01-28T03:45:56;17.90;78.80
56046;DHT22;41913;51.030;3.706;2023-01-28T03:48:25;17.90;78.80
56046;DHT22;41913;51.030;3.706;2023-01-28T03:50:53;17.90;78.80
56046;DHT22;41913;51.030;3.706;2023-01-28T03:53:19;17.90;78.80
56046;DHT22;41913;51.030;3.706;2023-01-28T03:55:48;17.90;78.80
56046;DHT22;41913;51.030;3.706;2023-01-28T03:58:15;17.90;78.80
56046;DHT22;41913;51.030;3.706;2023-01-28T04:00:41;17.90;78.80
56046;DHT22;41913;51.030;3.706;2023-01-28T04:03:12;17.90;78.70
56046;DHT22;41913;51.030;3.706;2023-01-28T04:05:46;17.90;79.30
56046;DHT22;41913;51.030;3.706;2023-01-28T04:08:23;17.90;78.70
56046;DHT22;41913;51.030;3.706;2023-01-28T04:10:52;17.80;78.60
56046;DHT22;41913;51.030;3.706;2023-01-28T04:13:18;17.90;78.60
56046;DHT22;41913;51.030;3.706;2023-01-28T04:15:44;17.80;78.60
56046;DHT22;41913;51.030;3.706;2023-01-28T04:18:10;17.80;78.60
56046;DHT22;41913;51.030;3.706;2023-01-28T04:20:36;17.80;78.60
56046;DHT22;41913;51.030;3.706;2023-01-28T04:23:02;17.80;78.60
56046;DHT22;41913;51.030;3.706;2023-01-28T04:25:29;17.80;78.60
56046;DHT22;41913;51.030;3.706;2023-01-28T04:27:54;17.80;78.50
56046;DHT22;41913;51.030;3.706;2023-01-28T04:30:21;17.80;78.50
56046;DHT22;41913;51.030;3.706;2023-01-28T04:32:47;17.80;78.50
56046;DHT22;41913;51.030;3.706;2023-01-28T04:35:15;17.80;78.60
56046;DHT22;41913;51.030;3.706;2023-01-28T04:37:41;17.80;78.50
56046;DHT22;41913;51.030;3.706;2023-01-28T04:40:08;17.80;78.50
56046;DHT22;41913;51.030;3.706;2023-01-28T04:42:35;17.80;78.50
56046;DHT22;41913;51.030;3.706;2023-01-28T04:45:03;17.80;78.50
56046;DHT22;41913;51.030;3.706;2023-01-28T04:47:29;17.70;78.40
56046;DHT22;41913;51.030;3.706;2023-01-28T04:50:01;17.80;78.50
56046;DHT22;41913;51.030;3.706;2023-01-28T04:52:26;17.70;78.40
56046;DHT22;41913;51.030;3.706;2023-01-28T04:54:53;17.70;78.40
56046;DHT22;41913;51.030;3.706;2023-01-28T04:57:18;17.70;78.40
56046;DHT22;41913;51.030;3.706;2023-01-28T04:59:45;17.70;78.40
56046;DHT22;41913;51.030;3.706;2023-01-28T05:02:12;17.70;78.40
56046;DHT22;41913;51.030;3.706;2023-01-28T05:04:37;17.70;78.40
56046;DHT22;41913;51.030;3.706;2023-01-28T05:07:04;17.70;78.40
56046;DHT22;41913;51.030;3.706;2023-01-28T05:09:31;17.70;78.40
56046;DHT22;41913;51.030;3.706;2023-01-28T05:11:59;17.70;78.90
56046;DHT22;41913;51.030;3.706;2023-01-28T05:14:26;17.70;78.40
56046;DHT22;41913;51.030;3.706;2023-01-28T05:16:54;17.70;78.30
56046;DHT22;41913;51.030;3.706;2023-01-28T05:19:21;17.60;78.30
56046;DHT22;41913;51.030;3.706;2023-01-28T05:21:53;17.60;78.30
56046;DHT22;41913;51.030;3.706;2023-01-28T05:24:19;17.60;78.30
56046;DHT22;41913;51.030;3.706;2023-01-28T05:26:45;17.60;78.30
56046;DHT22;41913;51.030;3.706;2023-01-28T05:29:12;17.60;78.30
56046;DHT22;41913;51.030;3.706;2023-01-28T05:31:38;17.60;78.30
56046;DHT22;41913;51.030;3.706;2023-01-28T05:34:04;17.60;78.30
56046;DHT22;41913;51.030;3.706;2023-01-28T05:36:30;17.60;78.30
56046;DHT22;41913;51.030;3.706;2023-01-28T05:39:02;17.60;78.20
56046;DHT22;41913;51.030;3.706;2023-01-28T05:41:27;17.70;78.20
56046;DHT22;41913;51.030;3.706;2023-01-28T05:43:55;17.70;78.20
56046;DHT22;41913;51.030;3.706;2023-01-28T05:46:21;17.70;78.20
56046;DHT22;41913;51.030;3.706;2023-01-28T05:48:47;17.80;78.10
56046;DHT22;41913;51.030;3.706;2023-01-28T05:51:12;17.80;78.00
56046;DHT22;41913;51.030;3.706;2023-01-28T05:53:41;17.90;77.90
56046;DHT22;41913;51.030;3.706;2023-01-28T05:56:07;17.90;77.80
56046;DHT22;41913;51.030;3.706;2023-01-28T05:58:33;17.90;77.70
56046;DHT22;41913;51.030;3.706;2023-01-28T06:00:58;17.90;77.60
56046;DHT22;41913;51.030;3.706;2023-01-28T06:03:25;17.90;77.60
56046;DHT22;41913;51.030;3.706;2023-01-28T06:05:51;18.00;77.60
56046;DHT22;41913;51.030;3.706;2023-01-28T06:08:16;17.90;77.60
56046;DHT22;41913;51.030;3.706;2023-01-28T06:10:42;18.00;77.60
56046;DHT22;41913;51.030;3.706;2023-01-28T06:13:07;18.10;77.50
56046;DHT22;41913;51.030;3.706;2023-01-28T06:15:33;18.00;77.30
56046;DHT22;41913;51.030;3.706;2023-01-28T06:17:59;18.10;77.20
56046;DHT22;41913;51.030;3.706;2023-01-28T06:20:24;18.10;77.10
56046;DHT22;41913;51.030;3.706;2023-01-28T06:22:51;18.10;77.10
56046;DHT22;41913;51.030;3.706;2023-01-28T06:25:17;18.10;77.10
56046;DHT22;41913;51.030;3.706;2023-01-28T06:27:43;18.10;77.10
56046;DHT22;41913;51.030;3.706;2023-01-28T06:30:09;18.10;77.10
56046;DHT22;41913;51.030;3.706;2023-01-28T06:32:35;18.10;77.10
56046;DHT22;41913;51.030;3.706;2023-01-28T06:35:07;18.10;77.00
56046;DHT22;41913;51.030;3.706;2023-01-28T06:37:33;18.20;77.00
56046;DHT22;41913;51.030;3.706;2023-01-28T06:39:59;18.20;76.80
56046;DHT22;41913;51.030;3.706;2023-01-28T06:42:25;18.20;76.70
56046;DHT22;41913;51.030;3.706;2023-01-28T06:44:53;18.20;76.70
56046;DHT22;41913;51.030;3.706;2023-01-28T06:47:19;18.20;76.70
56046;DHT22;41913;51.030;3.706;2023-01-28T06:49:45;18.20;76.70
56046;DHT22;41913;51.030;3.706;2023-01-28T06:52:11;18.20;76.80
56046;DHT22;41913;51.030;3.706;2023-01-28T06:54:36;18.20;76.70
56046;DHT22;41913;51.030;3.706;2023-01-28T06:57:02;18.20;76.60
56046;DHT22;41913;51.030;3.706;2023-01-28T06:59:27;18.20;76.60
56046;DHT22;41913;51.030;3.706;2023-01-28T07:01:53;18.30;76.70
56046;DHT22;41913;51.030;3.706;2023-01-28T07:04:19;18.30;76.70
56046;DHT22;41913;51.030;3.706;2023-01-28T07:06:44;18.20;76.60
56046;DHT22;41913;51.030;3.706;2023-01-28T07:09:11;18.20;76.60
56046;DHT22;41913;51.030;3.706;2023-01-28T07:11:39;18.30;76.70
56046;DHT22;41913;51.030;3.706;2023-01-28T07:14:06;18.30;76.80
56046;DHT22;41913;51.030;3.706;2023-01-28T07:16:32;18.30;76.70
56046;DHT22;41913;51.030;3.706;2023-01-28T07:18:58;18.30;76.70
56046;DHT22;41913;51.030;3.706;2023-01-28T07:21:26;18.30;76.70
56046;DHT22;41913;51.030;3.706;2023-01-28T07:23:52;18.30;76.60
56046;DHT22;41913;51.030;3.706;2023-01-28T07:26:17;18.30;76.60
56046;DHT22;41913;51.030;3.706;2023-01-28T07:28:44;18.30;76.60
56046;DHT22;41913;51.030;3.706;2023-01-28T07:31:11;18.30;76.60
56046;DHT22;41913;51.030;3.706;2023-01-28T07:33:37;18.30;76.70
56046;DHT22;41913;51.030;3.706;2023-01-28T07:36:03;18.30;76.70
56046;DHT22;41913;51.030;3.706;2023-01-28T07:38:29;18.40;76.90
56046;DHT22;41913;51.030;3.706;2023-01-28T07:40:54;18.40;76.90
56046;DHT22;41913;51.030;3.706;2023-01-28T07:43:20;18.40;76.70
56046;DHT22;41913;51.030;3.706;2023-01-28T07:45:46;18.50;76.60
56046;DHT22;41913;51.030;3.706;2023-01-28T07:48:12;18.50;76.30
56046;DHT22;41913;51.030;3.706;2023-01-28T07:50:41;18.60;76.10
56046;DHT22;41913;51.030;3.706;2023-01-28T07:53:09;18.60;76.00
56046;DHT22;41913;51.030;3.706;2023-01-28T07:55:36;18.70;75.90
56046;DHT22;41913;51.030;3.706;2023-01-28T07:58:05;18.70;75.50
56046;DHT22;41913;51.030;3.706;2023-01-28T08:00:34;18.70;75.80
56046;DHT22;41913;51.030;3.706;2023-01-28T08:03:11;18.80;75.20
56046;DHT22;41913;51.030;3.706;2023-01-28T08:05:46;18.90;75.80
56046;DHT22;41913;51.030;3.706;2023-01-28T08:08:15;19.00;75.50
56046;DHT22;41913;51.030;3.706;2023-01-28T08:10:43;19.10;75.70
56046;DHT22;41913;51.030;3.706;2023-01-28T08:13:10;19.20;75.80
56046;DHT22;41913;51.030;3.706;2023-01-28T08:15:36;19.30;76.20
56046;DHT22;41913;51.030;3.706;2023-01-28T08:18:04;19.50;76.60
56046;DHT22;41913;51.030;3.706;2023-01-28T08:20:31;19.60;77.10
56046;DHT22;41913;51.030;3.706;2023-01-28T08:23:08;19.80;77.90
56046;DHT22;41913;51.030;3.706;2023-01-28T08:25:35;19.90;78.60
56046;DHT22;41913;51.030;3.706;2023-01-28T08:28:02;20.10;79.20
56046;DHT22;41913;51.030;3.706;2023-01-28T08:30:27;20.20;80.30
56046;DHT22;41913;51.030;3.706;2023-01-28T08:32:57;20.30;80.70
56046;DHT22;41913;51.030;3.706;2023-01-28T08:35:23;20.30;80.90
56046;DHT22;41913;51.030;3.706;2023-01-28T08:37:49;20.40;80.90
56046;DHT22;41913;51.030;3.706;2023-01-28T08:40:15;20.50;81.30
56046;DHT22;41913;51.030;3.706;2023-01-28T08:42:46;20.60;81.20
56046;DHT22;41913;51.030;3.706;2023-01-28T08:45:12;20.70;81.60
56046;DHT22;41913;51.030;3.706;2023-01-28T08:47:56;20.70;81.70
56046;DHT22;41913;51.030;3.706;2023-01-28T08:50:23;20.80;82.10
56046;DHT22;41913;51.030;3.706;2023-01-28T08:53:04;20.80;82.30
56046;DHT22;41913;51.030;3.706;2023-01-28T08:55:30;20.90;82.30
56046;DHT22;41913;51.030;3.706;2023-01-28T08:58:01;21.00;82.80
56046;DHT22;41913;51.030;3.706;2023-01-28T09:00:27;21.10;83.30
56046;DHT22;41913;51.030;3.706;2023-01-28T09:02:53;21.10;83.40
56046;DHT22;41913;51.030;3.706;2023-01-28T09:05:20;21.10;83.90
56046;DHT22;41913;51.030;3.706;2023-01-28T09:07:46;21.10;81.90
56046;DHT22;41913;51.030;3.706;2023-01-28T09:10:12;21.00;79.80
56046;DHT22;41913;51.030;3.706;2023-01-28T09:12:38;20.70;78.00
56046;DHT22;41913;51.030;3.706;2023-01-28T09:15:06;20.60;76.40
56046;DHT22;41913;51.030;3.706;2023-01-28T09:17:32;20.30;75.40
56046;DHT22;41913;51.030;3.706;2023-01-28T09:19:57;20.10;74.60
56046;DHT22;41913;51.030;3.706;2023-01-28T09:22:23;19.90;74.10
56046;DHT22;41913;51.030;3.706;2023-01-28T09:24:48;19.80;72.70
56046;DHT22;41913;51.030;3.706;2023-01-28T09:27:15;19.60;71.80
56046;DHT22;41913;51.030;3.706;2023-01-28T09:29:42;19.40;70.80
56046;DHT22;41913;51.030;3.706;2023-01-28T09:32:07;19.30;70.30
56046;DHT22;41913;51.030;3.706;2023-01-28T09:34:33;19.20;71.00
56046;DHT22;41913;51.030;3.706;2023-01-28T09:36:59;19.10;71.70
56046;DHT22;41913;51.030;3.706;2023-01-28T09:39:25;19.10;72.40
56046;DHT22;41913;51.030;3.706;2023-01-28T09:47:37;19.00;73.80
56046;DHT22;41913;51.030;3.706;2023-01-28T09:50:10;19.10;74.30
56046;DHT22;41913;51.030;3.706;2023-01-28T09:52:38;19.10;74.50
56046;DHT22;41913;51.030;3.706;2023-01-28T09:55:18;19.20;74.60
56046;DHT22;41913;51.030;3.706;2023-01-28T09:57:52;19.20;74.70
56046;DHT22;41913;51.030;3.706;2023-01-28T10:03:46;19.30;75.10
56046;DHT22;41913;51.030;3.706;2023-01-28T10:06:41;19.30;75.20
56046;DHT22;41913;51.030;3.706;2023-01-28T10:09:18;19.30;75.30
56046;DHT22;41913;51.030;3.706;2023-01-28T10:17:36;19.40;76.00
56046;DHT22;41913;51.030;3.706;2023-01-28T10:20:24;19.50;76.10
56046;DHT22;41913;51.030;3.706;2023-01-28T10:23:25;19.50;76.10
56046;DHT22;41913;51.030;3.706;2023-01-28T10:25:55;19.60;76.80
56046;DHT22;41913;51.030;3.706;2023-01-28T10:28:27;19.60;76.10
56046;DHT22;41913;51.030;3.706;2023-01-28T10:30:53;19.60;76.10
56046;DHT22;41913;51.030;3.706;2023-01-28T10:33:32;19.60;76.10
56046;DHT22;41913;51.030;3.706;2023-01-28T10:36:00;19.60;76.80
56046;DHT22;41913;51.030;3.706;2023-01-28T10:38:26;19.60;76.40
56046;DHT22;41913;51.030;3.706;2023-01-28T10:40:57;19.60;76.60
56046;DHT22;41913;51.030;3.706;2023-01-28T10:43:28;19.70;76.70
56046;DHT22;41913;51.030;3.706;2023-01-28T10:46:15;19.70;76.70
56046;DHT22;41913;51.030;3.706;2023-01-28T10:51:12;19.80;76.60
56046;DHT22;41913;51.030;3.706;2023-01-28T10:53:44;19.80;76.60
56046;DHT22;41913;51.030;3.706;2023-01-28T10:56:16;19.80;76.60
56046;DHT22;41913;51.030;3.706;2023-01-28T11:01:48;19.80;76.60
56046;DHT22;41913;51.030;3.706;2023-01-28T11:06:57;19.80;76.70
56046;DHT22;41913;51.030;3.706;2023-01-28T11:09:26;19.80;76.80
56046;DHT22;41913;51.030;3.706;2023-01-28T11:11:52;19.80;76.80
56046;DHT22;41913;51.030;3.706;2023-01-28T11:14:26;19.80;77.30
56046;DHT22;41913;51.030;3.706;2023-01-28T11:16:54;19.90;76.70
56046;DHT22;41913;51.030;3.706;2023-01-28T11:19:27;19.80;76.60
56046;DHT22;41913;51.030;3.706;2023-01-28T11:21:54;19.90;76.70
56046;DHT22;41913;51.030;3.706;2023-01-28T11:24:29;19.90;76.70
56046;DHT22;41913;51.030;3.706;2023-01-28T11:26:57;19.80;76.70
56046;DHT22;41913;51.030;3.706;2023-01-28T11:29:31;19.80;76.80
56046;DHT22;41913;51.030;3.706;2023-01-28T11:31:58;19.80;76.80
56046;DHT22;41913;51.030;3.706;2023-01-28T11:34:27;19.90;76.90
56046;DHT22;41913;51.030;3.706;2023-01-28T11:37:00;19.90;76.90
56046;DHT22;41913;51.030;3.706;2023-01-28T11:39:28;19.90;76.80
56046;DHT22;41913;51.030;3.706;2023-01-28T11:42:03;19.90;76.90
56046;DHT22;41913;51.030;3.706;2023-01-28T11:44:37;19.90;76.80
56046;DHT22;41913;51.030;3.706;2023-01-28T11:58:56;19.80;76.30
56046;DHT22;41913;51.030;3.706;2023-01-28T12:04:35;19.90;76.20
56046;DHT22;41913;51.030;3.706;2023-01-28T12:07:48;19.90;76.30
56046;DHT22;41913;51.030;3.706;2023-01-28T12:10:21;19.80;75.50
56046;DHT22;41913;51.030;3.706;2023-01-28T12:21:05;19.30;73.20
56046;DHT22;41913;51.030;3.706;2023-01-28T12:24:06;19.20;72.80
56046;DHT22;41913;51.030;3.706;2023-01-28T12:27:24;19.10;72.70
56046;DHT22;41913;51.030;3.706;2023-01-28T12:29:59;19.00;72.50
56046;DHT22;41913;51.030;3.706;2023-01-28T12:32:50;18.90;72.30
56046;DHT22;41913;51.030;3.706;2023-01-28T12:38:15;18.80;71.90
56046;DHT22;41913;51.030;3.706;2023-01-28T12:41:21;18.70;71.70
56046;DHT22;41913;51.030;3.706;2023-01-28T12:43:58;18.60;71.40
56046;DHT22;41913;51.030;3.706;2023-01-28T12:49:18;18.40;71.20
56046;DHT22;41913;51.030;3.706;2023-01-28T12:56:57;18.30;71.00
56046;DHT22;41913;51.030;3.706;2023-01-28T12:59:47;18.20;70.60
56046;DHT22;41913;51.030;3.706;2023-01-28T13:02:25;18.20;70.30
56046;DHT22;41913;51.030;3.706;2023-01-28T13:10:20;18.00;69.80
56046;DHT22;41913;51.030;3.706;2023-01-28T13:12:49;18.00;69.70
56046;DHT22;41913;51.030;3.706;2023-01-28T13:15:17;17.90;69.70
56046;DHT22;41913;51.030;3.706;2023-01-28T13:20:53;17.90;69.60
56046;DHT22;41913;51.030;3.706;2023-01-28T13:23:40;17.90;69.20
56046;DHT22;41913;51.030;3.706;2023-01-28T13:28:50;17.80;69.50
56046;DHT22;41913;51.030;3.706;2023-01-28T13:31:22;17.70;69.50
56046;DHT22;41913;51.030;3.706;2023-01-28T13:36:33;17.80;70.00
56046;DHT22;41913;51.030;3.706;2023-01-28T13:39:13;17.80;70.40
56046;DHT22;41913;51.030;3.706;2023-01-28T13:46:53;18.00;71.40
56046;DHT22;41913;51.030;3.706;2023-01-28T13:49:33;18.10;71.70
56046;DHT22;41913;51.030;3.706;2023-01-28T13:52:05;18.10;72.00
56046;DHT22;41913;51.030;3.706;2023-01-28T13:54:35;18.20;72.20
56046;DHT22;41913;51.030;3.706;2023-01-28T14:14:10;18.40;73.60
56046;DHT22;41913;51.030;3.706;2023-01-28T14:19:19;18.40;73.90
56046;DHT22;41913;51.030;3.706;2023-01-28T14:21:46;18.40;74.00
56046;DHT22;41913;51.030;3.706;2023-01-28T14:24:16;18.50;74.20
56046;DHT22;41913;51.030;3.706;2023-01-28T14:29:57;18.50;74.30
56046;DHT22;41913;51.030;3.706;2023-01-28T14:32:28;18.50;74.30
56046;DHT22;41913;51.030;3.706;2023-01-28T14:34:58;18.50;74.40
56046;DHT22;41913;51.030;3.706;2023-01-28T14:37:28;18.50;74.50
56046;DHT22;41913;51.030;3.706;2023-01-28T14:40:00;18.50;74.60
56046;DHT22;41913;51.030;3.706;2023-01-28T14:42:38;18.40;73.40
56046;DHT22;41913;51.030;3.706;2023-01-28T14:52:46;18.20;70.80
56046;DHT22;41913;51.030;3.706;2023-01-28T14:58:40;18.10;70.10
56046;DHT22;41913;51.030;3.706;2023-01-28T15:03:47;17.90;69.30
56046;DHT22;41913;51.030;3.706;2023-01-28T15:06:15;17.90;69.20
56046;DHT22;41913;51.030;3.706;2023-01-28T15:08:41;17.80;68.90
56046;DHT22;41913;51.030;3.706;2023-01-28T15:11:11;17.80;68.70
56046;DHT22;41913;51.030;3.706;2023-01-28T15:13:44;17.80;69.30
56046;DHT22;41913;51.030;3.706;2023-01-28T15:16:18;17.90;70.10
56046;DHT22;41913;51.030;3.706;2023-01-28T15:18:45;17.90;71.30
56046;DHT22;41913;51.030;3.706;2023-01-28T15:21:11;18.00;71.10
56046;DHT22;41913;51.030;3.706;2023-01-28T15:23:39;18.00;71.50
56046;DHT22;41913;51.030;3.706;2023-01-28T15:26:26;18.10;71.90
56046;DHT22;41913;51.030;3.706;2023-01-28T15:28:53;18.10;72.30
56046;DHT22;41913;51.030;3.706;2023-01-28T15:31:23;18.20;72.60
56046;DHT22;41913;51.030;3.706;2023-01-28T15:34:11;18.20;73.00
56046;DHT22;41913;51.030;3.706;2023-01-28T15:36:36;18.30;73.30
56046;DHT22;41913;51.030;3.706;2023-01-28T15:39:03;18.30;73.60
56046;DHT22;41913;51.030;3.706;2023-01-28T15:41:34;18.30;73.70
56046;DHT22;41913;51.030;3.706;2023-01-28T15:44:03;18.40;73.90
56046;DHT22;41913;51.030;3.706;2023-01-28T15:46:29;18.40;74.00
56046;DHT22;41913;51.030;3.706;2023-01-28T15:49:01;18.40;74.10
56046;DHT22;41913;51.030;3.706;2023-01-28T15:51:31;18.50;74.30
56046;DHT22;41913;51.030;3.706;2023-01-28T15:54:06;18.40;74.40
56046;DHT22;41913;51.030;3.706;2023-01-28T15:56:33;18.50;74.60
56046;DHT22;41913;51.030;3.706;2023-01-28T15:59:25;18.50;74.70
56046;DHT22;41913;51.030;3.706;2023-01-28T16:02:03;18.50;74.90
56046;DHT22;41913;51.030;3.706;2023-01-28T16:04:36;18.50;75.00
56046;DHT22;41913;51.030;3.706;2023-01-28T16:07:03;18.50;75.00
56046;DHT22;41913;51.030;3.706;2023-01-28T16:09:31;18.50;75.10
56046;DHT22;41913;51.030;3.706;2023-01-28T16:12:11;18.50;75.10
56046;DHT22;41913;51.030;3.706;2023-01-28T16:14:44;18.60;75.00
56046;DHT22;41913;51.030;3.706;2023-01-28T16:17:15;18.60;75.10
56046;DHT22;41913;51.030;3.706;2023-01-28T16:19:45;18.60;75.00
56046;DHT22;41913;51.030;3.706;2023-01-28T16:22:20;18.70;75.00
56046;DHT22;41913;51.030;3.706;2023-01-28T16:24:51;18.70;75.00
56046;DHT22;41913;51.030;3.706;2023-01-28T16:27:23;18.70;75.10
56046;DHT22;41913;51.030;3.706;2023-01-28T16:29:49;18.70;75.20
56046;DHT22;41913;51.030;3.706;2023-01-28T16:34:52;18.70;75.30
56046;DHT22;41913;51.030;3.706;2023-01-28T16:37:18;18.70;75.40
56046;DHT22;41913;51.030;3.706;2023-01-28T16:39:44;18.70;75.50
56046;DHT22;41913;51.030;3.706;2023-01-28T16:42:09;18.80;75.70
56046;DHT22;41913;51.030;3.706;2023-01-28T16:44:35;18.80;75.80
56046;DHT22;41913;51.030;3.706;2023-01-28T16:47:04;18.80;75.80
56046;DHT22;41913;51.030;3.706;2023-01-28T16:49:30;18.80;75.90
56046;DHT22;41913;51.030;3.706;2023-01-28T16:51:55;18.80;75.90
56046;DHT22;41913;51.030;3.706;2023-01-28T16:54:21;18.80;76.00
56046;DHT22;41913;51.030;3.706;2023-01-28T16:56:47;18.80;76.00
56046;DHT22;41913;51.030;3.706;2023-01-28T16:59:14;18.80;76.00
56046;DHT22;41913;51.030;3.706;2023-01-28T17:01:44;18.80;76.10
56046;DHT22;41913;51.030;3.706;2023-01-28T17:04:10;18.90;76.30
56046;DHT22;41913;51.030;3.706;2023-01-28T17:06:36;18.90;76.40
56046;DHT22;41913;51.030;3.706;2023-01-28T17:09:04;18.90;76.40
56046;DHT22;41913;51.030;3.706;2023-01-28T17:11:31;18.90;76.40
56046;DHT22;41913;51.030;3.706;2023-01-28T17:13:57;18.90;76.40
56046;DHT22;41913;51.030;3.706;2023-01-28T17:16:22;18.90;76.40
56046;DHT22;41913;51.030;3.706;2023-01-28T17:18:52;18.90;76.30
56046;DHT22;41913;51.030;3.706;2023-01-28T17:21:20;18.90;76.20
56046;DHT22;41913;51.030;3.706;2023-01-28T17:23:46;18.90;76.20
56046;DHT22;41913;51.030;3.706;2023-01-28T17:26:14;18.90;76.70
56046;DHT22;41913;51.030;3.706;2023-01-28T17:28:41;18.90;76.10
56046;DHT22;41913;51.030;3.706;2023-01-28T17:31:11;18.90;76.10
56046;DHT22;41913;51.030;3.706;2023-01-28T17:33:38;19.00;76.00
56046;DHT22;41913;51.030;3.706;2023-01-28T17:36:05;19.00;75.90
56046;DHT22;41913;51.030;3.706;2023-01-28T17:38:31;19.00;75.90
56046;DHT22;41913;51.030;3.706;2023-01-28T17:41:04;18.90;75.80
56046;DHT22;41913;51.030;3.706;2023-01-28T17:43:31;18.90;75.90
56046;DHT22;41913;51.030;3.706;2023-01-28T17:46:00;19.00;75.90
56046;DHT22;41913;51.030;3.706;2023-01-28T17:48:26;19.00;75.90
56046;DHT22;41913;51.030;3.706;2023-01-28T17:50:57;19.00;76.00
56046;DHT22;41913;51.030;3.706;2023-01-28T17:53:23;19.00;76.00
56046;DHT22;41913;51.030;3.706;2023-01-28T17:55:50;19.00;76.00
56046;DHT22;41913;51.030;3.706;2023-01-28T17:58:17;18.90;76.00
56046;DHT22;41913;51.030;3.706;2023-01-28T18:00:45;18.90;76.10
56046;DHT22;41913;51.030;3.706;2023-01-28T18:03:14;18.90;76.10